Time;durP1;ratioP1;P1;durP2;ratioP2;P2;SDS_P1;SDS_P2;PMS_P1;PMS_P2;Temp;Humidity;BMP_temperature;BMP_pressure;BME280_temperature;BME280_humidity;BME280_pressure;Samples;Min_cycle;Max_cycle;Signal;HPM_P1;HPM_P2
2021/12/17 00:01:44;;;;;;;12.10;6.80;;;8.20;99.90;;;;;;5032134;28;20199;-44
2021/12/17 00:04:25;;;;;;;14.77;7.70;;;8.10;99.90;;;;;;5072224;28;20713;-43
2021/12/17 00:06:52;;;;;;;11.07;6.57;;;8.10;99.90;;;;;;5046920;28;21037;-43
2021/12/17 00:09:20;;;;;;;10.80;6.63;;;8.10;99.90;;;;;;5071184;28;20576;-43
2021/12/17 00:11:47;;;;;;;12.07;6.20;;;8.10;99.90;;;;;;5067820;28;20309;-43
2021/12/17 00:14:22;;;;;;;15.70;7.03;;;8.10;99.90;;;;;;5054806;28;20230;-44
2021/12/17 00:16:49;;;;;;;13.77;6.80;;;8.10;99.90;;;;;;5075815;27;20191;-43
2021/12/17 00:19:23;;;;;;;14.13;6.93;;;8.00;99.90;;;;;;5061160;28;20217;-43
2021/12/17 00:44:15;;;;;;;11.37;6.77;;;8.10;99.90;;;;;;5066044;28;20288;-47
2021/12/17 00:49:28;;;;;;;14.97;6.73;;;8.00;99.90;;;;;;5045207;28;20425;-47
2021/12/17 00:51:56;;;;;;;15.97;7.63;;;8.00;99.90;;;;;;5066597;28;20620;-47
2021/12/17 00:54:32;;;;;;;11.73;7.20;;;8.00;99.90;;;;;;5069318;28;20235;-46
2021/12/17 00:57:04;;;;;;;14.23;7.13;;;8.00;99.90;;;;;;5084076;28;20713;-46
2021/12/17 00:59:31;;;;;;;10.17;5.67;;;8.00;99.90;;;;;;5050853;28;20223;-45
2021/12/17 01:02:01;;;;;;;8.57;5.33;;;7.90;99.90;;;;;;5065837;28;20701;-46
2021/12/17 01:04:28;;;;;;;6.50;5.20;;;7.90;99.90;;;;;;5053544;28;20576;-47
2021/12/17 01:06:56;;;;;;;7.27;4.53;;;7.90;99.90;;;;;;5078893;28;20783;-46
2021/12/17 01:09:27;;;;;;;5.87;3.53;;;7.90;99.90;;;;;;5045193;27;20234;-46
2021/12/17 01:11:54;;;;;;;4.30;3.30;;;7.90;99.90;;;;;;5067983;27;20224;-46
2021/12/17 01:14:23;;;;;;;4.43;2.93;;;7.80;99.90;;;;;;5065369;28;20247;-46
2021/12/17 01:16:53;;;;;;;6.43;3.77;;;7.80;99.90;;;;;;5071264;28;20208;-46
2021/12/17 01:19:29;;;;;;;4.93;3.80;;;7.80;99.90;;;;;;5051867;28;20741;-46
2021/12/17 01:22:14;;;;;;;6.93;3.77;;;7.80;99.90;;;;;;5072280;28;20734;-46
2021/12/17 01:24:46;;;;;;;7.33;3.60;;;7.80;99.90;;;;;;5045861;28;20315;-46
2021/12/17 01:35:29;;;;;;;5.30;3.30;;;7.80;99.90;;;;;;5053320;28;20225;-46
2021/12/17 01:41:01;;;;;;;5.33;3.20;;;7.70;99.90;;;;;;5056474;28;20216;-43
2021/12/17 01:43:35;;;;;;;5.80;3.70;;;7.70;99.90;;;;;;5069183;28;20230;-43
2021/12/17 01:46:05;;;;;;;7.67;3.50;;;7.70;99.90;;;;;;5050643;28;20223;-44
2021/12/17 01:48:50;;;;;;;7.17;3.40;;;7.70;99.90;;;;;;5079002;28;20663;-43
2021/12/17 01:59:59;;;;;;;6.33;3.00;;;7.60;99.90;;;;;;5040561;28;20214;-46
2021/12/17 02:02:29;;;;;;;6.70;3.63;;;7.60;99.90;;;;;;5063430;28;20277;-47
2021/12/17 02:04:56;;;;;;;6.07;3.20;;;7.60;99.90;;;;;;5062407;28;20257;-47
2021/12/17 02:07:23;;;;;;;5.43;3.00;;;7.60;99.90;;;;;;5054282;28;20415;-47
2021/12/17 02:12:57;;;;;;;5.13;3.40;;;7.60;99.90;;;;;;5076988;28;20226;-42
2021/12/17 02:29:39;;;;;;;4.47;2.80;;;7.50;99.90;;;;;;5067424;28;20301;-43
2021/12/17 02:32:08;;;;;;;5.70;3.10;;;7.50;99.90;;;;;;5037068;28;20211;-43
2021/12/17 02:34:54;;;;;;;6.47;3.27;;;7.50;99.90;;;;;;5066639;28;20242;-43
2021/12/17 02:37:25;;;;;;;5.50;2.93;;;7.60;99.90;;;;;;5035602;28;22779;-42
2021/12/17 02:40:09;;;;;;;6.83;3.50;;;7.60;99.90;;;;;;5066999;28;20746;-43
2021/12/17 02:45:31;;;;;;;7.07;3.70;;;7.60;99.90;;;;;;5075246;28;20519;-43
2021/12/17 02:45:36;;;;;;;7.57;3.13;;;7.50;99.90;;;;;;5079518;28;20211;-43
2021/12/17 02:48:07;;;;;;;5.10;3.20;;;7.50;99.90;;;;;;5056962;28;20621;-43
2021/12/17 02:50:36;;;;;;;5.77;3.60;;;7.60;99.90;;;;;;5067708;28;20423;-43
2021/12/17 02:53:07;;;;;;;8.00;3.80;;;7.60;99.90;;;;;;5054224;28;20622;-42
2021/12/17 02:55:36;;;;;;;6.73;3.50;;;7.60;99.90;;;;;;5049641;28;20926;-47
2021/12/17 02:58:04;;;;;;;4.40;3.20;;;7.60;99.90;;;;;;5063171;28;20850;-47
2021/12/17 03:00:31;;;;;;;5.87;3.10;;;7.60;99.90;;;;;;5060809;28;20601;-49
2021/12/17 03:03:00;;;;;;;6.30;2.93;;;7.60;99.90;;;;;;5049157;28;20212;-47
2021/12/17 03:05:27;;;;;;;4.60;2.90;;;7.60;99.90;;;;;;5056572;28;20239;-47
2021/12/17 03:07:56;;;;;;;5.63;2.80;;;7.60;99.90;;;;;;5054291;28;20215;-47
2021/12/17 03:10:25;;;;;;;5.37;2.93;;;7.60;99.90;;;;;;5053156;28;20250;-47
2021/12/17 03:12:57;;;;;;;5.07;3.27;;;7.60;99.90;;;;;;5077010;28;20672;-47
2021/12/17 03:15:33;;;;;;;8.53;3.07;;;7.60;99.90;;;;;;5037801;28;20768;-47
2021/12/17 03:23:32;;;;;;;4.73;2.83;;;7.60;99.90;;;;;;5044491;28;21367;-47
2021/12/17 03:26:03;;;;;;;5.53;3.03;;;7.60;99.90;;;;;;5067822;28;20785;-47
2021/12/17 03:28:31;;;;;;;4.13;2.73;;;7.60;99.90;;;;;;5054449;28;20224;-48
2021/12/17 03:30:58;;;;;;;6.77;2.90;;;7.50;99.90;;;;;;5071605;28;20598;-47
2021/12/17 03:33:25;;;;;;;4.13;2.80;;;7.50;99.90;;;;;;5060070;28;20224;-47
2021/12/17 03:35:53;;;;;;;6.40;2.93;;;7.50;99.90;;;;;;5078992;28;20214;-47
2021/12/17 03:38:20;;;;;;;9.17;3.17;;;7.50;99.90;;;;;;5049895;28;20231;-47
2021/12/17 03:40:52;;;;;;;3.93;2.80;;;7.40;99.90;;;;;;5051958;28;20219;-47
2021/12/17 03:43:24;;;;;;;5.83;3.00;;;7.50;99.90;;;;;;5064120;28;20207;-47
2021/12/17 03:45:51;;;;;;;6.97;3.13;;;7.50;99.90;;;;;;5076816;28;20348;-47
2021/12/17 03:48:18;;;;;;;5.47;2.40;;;7.50;99.90;;;;;;5067281;28;20618;-47
2021/12/17 03:50:44;;;;;;;6.27;2.90;;;7.50;99.90;;;;;;5055427;28;20204;-47
2021/12/17 03:53:11;;;;;;;6.43;2.70;;;7.50;99.90;;;;;;5068752;28;20223;-47
2021/12/17 03:55:38;;;;;;;4.27;2.60;;;7.50;99.90;;;;;;5059210;28;21517;-47
2021/12/17 03:58:05;;;;;;;3.63;2.53;;;7.50;99.90;;;;;;5063646;27;20227;-47
2021/12/17 04:00:34;;;;;;;6.83;3.07;;;7.50;99.90;;;;;;5066416;28;20738;-47
2021/12/17 04:03:02;;;;;;;3.87;2.70;;;7.50;99.90;;;;;;5060781;28;20226;-46
2021/12/17 04:05:29;;;;;;;5.27;2.80;;;7.50;99.90;;;;;;5064578;28;20227;-46
2021/12/17 04:07:55;;;;;;;7.23;3.23;;;7.50;99.90;;;;;;5070313;28;20335;-46
2021/12/17 04:10:24;;;;;;;5.93;2.83;;;7.50;99.90;;;;;;5065238;28;20672;-46
2021/12/17 04:12:56;;;;;;;9.83;3.17;;;7.50;99.90;;;;;;5043609;28;20228;-47
2021/12/17 04:15:32;;;;;;;3.90;2.70;;;7.50;99.90;;;;;;5065454;28;20810;-47
2021/12/17 04:18:01;;;;;;;5.63;2.97;;;7.50;99.90;;;;;;5070137;28;20871;-46
2021/12/17 04:20:28;;;;;;;7.73;2.83;;;7.50;99.90;;;;;;5061337;28;20680;-46
2021/12/17 04:22:55;;;;;;;6.80;3.47;;;7.60;99.90;;;;;;5051361;28;20261;-46
2021/12/17 04:25:22;;;;;;;5.20;3.40;;;7.60;99.90;;;;;;5068109;28;20227;-46
2021/12/17 04:27:49;;;;;;;4.87;3.10;;;7.50;99.90;;;;;;5041265;28;21361;-47
2021/12/17 04:30:16;;;;;;;7.50;3.60;;;7.60;99.90;;;;;;5064985;28;20207;-46
2021/12/17 04:32:43;;;;;;;7.70;3.77;;;7.50;99.90;;;;;;5057618;27;20231;-47
2021/12/17 04:35:14;;;;;;;6.87;3.60;;;7.60;99.90;;;;;;5063789;28;20231;-46
2021/12/17 04:37:45;;;;;;;6.30;3.07;;;7.50;99.90;;;;;;5070663;28;20566;-46
2021/12/17 04:40:12;;;;;;;4.43;2.80;;;7.50;99.90;;;;;;5040383;27;20292;-47
2021/12/17 04:42:49;;;;;;;6.17;3.27;;;7.50;99.90;;;;;;5050974;28;20208;-47
2021/12/17 04:45:16;;;;;;;5.03;2.93;;;7.50;99.90;;;;;;5053284;28;20227;-47
2021/12/17 04:58:38;;;;;;;5.30;2.80;;;7.60;99.90;;;;;;5025709;28;20334;-43
2021/12/17 05:01:10;;;;;;;7.90;3.50;;;7.50;99.90;;;;;;5037910;28;20673;-47
2021/12/17 05:03:37;;;;;;;7.17;3.67;;;7.50;99.90;;;;;;5070845;28;20215;-43
2021/12/17 05:06:05;;;;;;;5.60;3.33;;;7.50;99.90;;;;;;5051368;28;20751;-43
2021/12/17 05:08:33;;;;;;;7.87;3.73;;;7.50;99.90;;;;;;5071680;28;20211;-43
2021/12/17 05:11:26;;;;;;;7.47;3.80;;;7.60;99.90;;;;;;5075216;28;20216;-43
2021/12/17 05:19:43;;;;;;;7.00;3.77;;;7.60;99.90;;;;;;5051633;28;20295;-43
2021/12/17 05:22:12;;;;;;;7.53;3.67;;;7.60;99.90;;;;;;5067897;28;20228;-43
2021/12/17 05:24:39;;;;;;;6.30;3.53;;;7.60;99.90;;;;;;5058009;28;20219;-43
2021/12/17 05:27:07;;;;;;;5.83;3.50;;;7.70;99.90;;;;;;5072807;28;20232;-43
2021/12/17 05:29:34;;;;;;;8.80;4.10;;;7.70;99.90;;;;;;5048832;28;21011;-46
2021/12/17 05:32:00;;;;;;;6.83;3.10;;;7.70;99.90;;;;;;5038561;27;20579;-47
2021/12/17 05:34:27;;;;;;;5.90;3.60;;;7.70;99.90;;;;;;5062314;28;20243;-46
2021/12/17 05:36:54;;;;;;;4.87;3.23;;;7.70;99.90;;;;;;5038426;27;20497;-46
2021/12/17 05:39:23;;;;;;;7.97;3.73;;;7.70;99.90;;;;;;5060872;28;20673;-44
2021/12/17 05:41:50;;;;;;;3.87;2.90;;;7.70;99.90;;;;;;5043525;28;20808;-44
2021/12/17 05:44:18;;;;;;;5.97;3.47;;;7.70;99.90;;;;;;5045590;28;20776;-44
2021/12/17 05:46:49;;;;;;;5.73;3.37;;;7.70;99.90;;;;;;5027825;27;20736;-44
2021/12/17 05:49:17;;;;;;;3.97;2.97;;;7.70;99.90;;;;;;5070073;28;20204;-44
2021/12/17 05:51:44;;;;;;;6.00;3.77;;;7.70;99.90;;;;;;5033732;28;20667;-43
2021/12/17 05:54:11;;;;;;;4.53;3.00;;;7.60;99.90;;;;;;5032115;28;20227;-43
2021/12/17 05:56:40;;;;;;;6.60;3.33;;;7.60;99.90;;;;;;5058291;28;20206;-43
2021/12/17 05:59:07;;;;;;;6.00;3.50;;;7.60;99.90;;;;;;5051553;28;20846;-43
2021/12/17 06:01:34;;;;;;;4.03;3.00;;;7.60;99.90;;;;;;5046890;28;21748;-48
2021/12/17 06:04:01;;;;;;;5.03;3.10;;;7.60;99.90;;;;;;5047927;28;20254;-47
2021/12/17 06:06:30;;;;;;;5.17;3.13;;;7.60;99.90;;;;;;5052820;28;20655;-47
2021/12/17 06:08:57;;;;;;;6.60;3.40;;;7.60;99.90;;;;;;5053453;28;20484;-46
2021/12/17 06:11:24;;;;;;;5.10;3.43;;;7.70;99.90;;;;;;5068729;28;20792;-47
2021/12/17 06:13:52;;;;;;;5.90;3.30;;;7.70;99.90;;;;;;5052618;28;20605;-47
2021/12/17 06:16:19;;;;;;;6.90;3.70;;;7.70;99.90;;;;;;5021585;28;20690;-46
2021/12/17 06:18:46;;;;;;;4.70;3.00;;;7.70;99.90;;;;;;5045117;28;20509;-46
2021/12/17 06:21:13;;;;;;;8.03;3.67;;;7.70;99.90;;;;;;5046338;28;20220;-47
2021/12/17 06:23:39;;;;;;;7.30;4.07;;;7.70;99.90;;;;;;5038389;28;20223;-47
2021/12/17 06:26:06;;;;;;;4.70;3.33;;;7.70;99.90;;;;;;5077209;28;20202;-47
2021/12/17 06:28:33;;;;;;;5.87;4.07;;;7.70;99.90;;;;;;5039786;28;20254;-47
2021/12/17 06:31:02;;;;;;;7.80;3.73;;;7.70;99.90;;;;;;5043522;28;20622;-43
2021/12/17 06:33:28;;;;;;;5.97;4.13;;;7.70;99.90;;;;;;5073491;28;20199;-43
2021/12/17 06:35:55;;;;;;;8.07;3.53;;;7.70;99.90;;;;;;5060269;28;20597;-43
2021/12/17 06:38:24;;;;;;;8.40;3.87;;;7.70;99.90;;;;;;5042805;28;20207;-43
2021/12/17 06:40:53;;;;;;;6.83;3.97;;;7.70;99.90;;;;;;5067616;28;21045;-43
2021/12/17 06:43:23;;;;;;;9.97;4.20;;;7.70;99.90;;;;;;5067073;28;20199;-43
2021/12/17 06:45:55;;;;;;;6.50;3.70;;;7.70;99.90;;;;;;5063289;28;20442;-47
2021/12/17 06:48:27;;;;;;;6.57;3.87;;;7.70;99.90;;;;;;5078789;28;20223;-47
2021/12/17 06:59:10;;;;;;;7.87;4.37;;;7.70;99.90;;;;;;5052753;28;20839;-46
2021/12/17 07:18:19;;;;;;;8.30;4.70;;;7.70;99.90;;;;;;5062596;28;20283;-46
2021/12/17 07:40:44;;;;;;;8.30;4.80;;;7.70;99.90;;;;;;5064460;28;20288;-46
2021/12/17 07:43:22;;;;;;;11.77;5.17;;;7.70;99.90;;;;;;5072368;28;20207;-47
2021/12/17 07:45:50;;;;;;;14.53;6.63;;;7.70;99.90;;;;;;5073646;28;20325;-46
2021/12/17 07:48:17;;;;;;;12.87;5.90;;;7.70;99.90;;;;;;5055867;28;20231;-46
2021/12/17 07:50:44;;;;;;;15.47;6.13;;;7.80;99.90;;;;;;5070429;28;20421;-46
2021/12/17 07:53:12;;;;;;;13.80;5.80;;;7.80;99.90;;;;;;5075253;28;20208;-46
2021/12/17 07:55:39;;;;;;;11.80;5.63;;;7.70;99.90;;;;;;5060831;28;21524;-46
2021/12/17 07:58:06;;;;;;;10.17;5.77;;;7.70;99.90;;;;;;5060580;28;20200;-47
2021/12/17 08:00:33;;;;;;;12.47;5.70;;;7.70;99.90;;;;;;5058693;28;20749;-46
2021/12/17 08:03:00;;;;;;;18.87;6.30;;;7.70;99.90;;;;;;5051888;28;20235;-46
2021/12/17 08:05:27;;;;;;;14.03;6.60;;;7.70;99.90;;;;;;5072205;28;20232;-47
2021/12/17 08:07:54;;;;;;;15.07;6.63;;;7.70;99.90;;;;;;5076836;28;20250;-48
2021/12/17 08:10:22;;;;;;;18.67;6.53;;;7.70;99.90;;;;;;5065457;28;20210;-46
2021/12/17 08:12:53;;;;;;;10.63;6.10;;;7.70;99.90;;;;;;5059153;28;20422;-47
2021/12/17 08:15:23;;;;;;;11.83;7.13;;;7.70;99.90;;;;;;5081734;28;20223;-46
2021/12/17 08:18:17;;;;;;;14.13;6.37;;;7.80;99.90;;;;;;5062571;28;20425;-47
2021/12/17 08:26:27;;;;;;;10.00;5.37;;;7.80;99.90;;;;;;5065267;28;20200;-47
2021/12/17 08:29:07;;;;;;;12.27;6.50;;;7.80;99.90;;;;;;5067102;28;20422;-47
2021/12/17 08:31:33;;;;;;;11.30;6.13;;;7.80;99.90;;;;;;5059029;28;20344;-47
2021/12/17 08:34:02;;;;;;;12.23;6.50;;;7.80;99.90;;;;;;5060726;28;20239;-47
2021/12/17 08:36:29;;;;;;;10.83;5.93;;;7.80;99.90;;;;;;5068768;28;20220;-47
2021/12/17 08:38:56;;;;;;;11.83;6.03;;;7.80;99.90;;;;;;5081286;28;20215;-47
2021/12/17 08:41:26;;;;;;;10.03;6.30;;;7.80;99.90;;;;;;5078695;28;20210;-47
2021/12/17 08:43:53;;;;;;;9.40;6.40;;;7.70;99.90;;;;;;5056617;28;20322;-47
2021/12/17 08:46:20;;;;;;;7.00;4.53;;;7.70;99.90;;;;;;5083342;28;20206;-46
2021/12/17 08:48:47;;;;;;;6.57;3.63;;;7.70;99.90;;;;;;5066421;28;20233;-46
2021/12/17 08:51:14;;;;;;;7.20;4.27;;;7.70;99.90;;;;;;5080489;27;20806;-46
2021/12/17 08:53:41;;;;;;;13.47;4.17;;;7.70;99.90;;;;;;5085037;28;20226;-46
2021/12/17 08:56:08;;;;;;;6.17;3.63;;;7.70;99.90;;;;;;5056878;28;20207;-46
2021/12/17 08:58:36;;;;;;;7.30;3.80;;;7.80;99.90;;;;;;5066134;28;20204;-46
2021/12/17 09:01:04;;;;;;;6.53;3.40;;;7.70;99.90;;;;;;5037073;28;20204;-46
2021/12/17 09:03:32;;;;;;;7.93;3.63;;;7.80;99.90;;;;;;5082239;28;20273;-46
2021/12/17 09:06:00;;;;;;;9.50;3.37;;;7.80;99.90;;;;;;5055599;28;20400;-47
2021/12/17 09:08:27;;;;;;;5.77;3.20;;;7.70;99.90;;;;;;5079746;28;20226;-46
2021/12/17 09:10:55;;;;;;;8.27;3.37;;;7.70;99.90;;;;;;5070605;28;20211;-46
2021/12/17 09:13:25;;;;;;;4.87;3.13;;;7.80;99.90;;;;;;5070173;27;20704;-46
2021/12/17 09:15:54;;;;;;;5.07;3.00;;;7.80;99.90;;;;;;5068210;28;20212;-47
2021/12/17 09:18:21;;;;;;;3.07;2.30;;;7.70;99.90;;;;;;5080659;28;20200;-46
2021/12/17 09:20:48;;;;;;;4.17;2.60;;;7.80;99.90;;;;;;5066694;28;20603;-46
2021/12/17 09:23:15;;;;;;;5.77;2.60;;;7.80;99.90;;;;;;5072783;28;20208;-46
2021/12/17 09:25:42;;;;;;;5.70;2.80;;;7.80;99.90;;;;;;5066702;28;20214;-46
2021/12/17 09:28:09;;;;;;;3.27;2.20;;;7.80;99.90;;;;;;5076313;28;20228;-44
2021/12/17 09:30:36;;;;;;;3.93;2.60;;;7.80;99.90;;;;;;5065831;28;20241;-43
2021/12/17 09:33:04;;;;;;;7.87;2.70;;;7.70;99.90;;;;;;5066445;28;20403;-44
2021/12/17 09:35:31;;;;;;;7.47;2.87;;;7.70;99.90;;;;;;5083087;28;20228;-44
2021/12/17 09:37:58;;;;;;;5.03;2.47;;;7.80;99.90;;;;;;5053499;28;20217;-44
2021/12/17 09:40:26;;;;;;;7.73;4.53;;;7.70;99.90;;;;;;5057374;28;20570;-44
2021/12/17 09:42:53;;;;;;;12.60;7.30;;;7.80;99.90;;;;;;5070301;28;20686;-44
2021/12/17 09:45:20;;;;;;;14.23;4.60;;;7.80;99.90;;;;;;5070657;28;20261;-44
2021/12/17 09:47:48;;;;;;;5.87;3.40;;;7.80;99.90;;;;;;5065743;28;20714;-43
2021/12/17 09:50:20;;;;;;;9.67;6.80;;;7.80;99.90;;;;;;5075694;28;20203;-43
2021/12/17 09:52:47;;;;;;;6.57;4.60;;;7.80;99.90;;;;;;5058230;28;20203;-43
2021/12/17 09:55:14;;;;;;;9.53;7.10;;;7.70;99.90;;;;;;5070403;28;20731;-43
2021/12/17 09:57:41;;;;;;;4.60;3.80;;;7.70;99.90;;;;;;5078450;28;20207;-43
2021/12/17 10:00:12;;;;;;;5.53;4.07;;;7.80;99.90;;;;;;5066605;28;20851;-43
2021/12/17 10:02:39;;;;;;;6.00;3.50;;;7.80;99.90;;;;;;5069327;28;20204;-43
2021/12/17 10:05:06;;;;;;;11.07;4.60;;;7.80;99.90;;;;;;5061361;28;20224;-43
2021/12/17 10:07:36;;;;;;;5.67;4.00;;;7.80;99.90;;;;;;5041795;28;20328;-43
2021/12/17 10:10:06;;;;;;;4.73;3.80;;;7.80;99.90;;;;;;5063071;28;20219;-43
2021/12/17 10:12:35;;;;;;;6.33;3.90;;;7.80;99.90;;;;;;5040618;28;20214;-45
2021/12/17 10:15:06;;;;;;;7.00;4.13;;;7.80;99.90;;;;;;5074865;28;20219;-43
2021/12/17 10:17:34;;;;;;;7.23;3.93;;;7.80;99.90;;;;;;5062115;28;20400;-43
2021/12/17 10:20:03;;;;;;;6.50;4.20;;;7.80;99.90;;;;;;5073204;28;20722;-43
2021/12/17 10:22:31;;;;;;;5.90;3.93;;;7.80;99.90;;;;;;5062857;28;20462;-44
2021/12/17 10:25:02;;;;;;;8.20;4.03;;;7.80;99.90;;;;;;5063957;28;20230;-45
2021/12/17 10:27:32;;;;;;;6.53;4.27;;;7.90;99.90;;;;;;5066112;28;20195;-44
2021/12/17 10:29:59;;;;;;;5.50;3.83;;;7.90;99.90;;;;;;5062844;28;20204;-44
2021/12/17 10:32:28;;;;;;;6.60;3.77;;;7.80;99.90;;;;;;5049386;28;20212;-44
2021/12/17 10:35:03;;;;;;;8.03;4.53;;;7.90;99.90;;;;;;5063056;28;20268;-44
2021/12/17 10:37:35;;;;;;;8.87;4.50;;;7.90;99.90;;;;;;5046513;28;20334;-44
2021/12/17 10:40:22;;;;;;;5.73;3.93;;;7.90;99.90;;;;;;5075079;28;20218;-44
2021/12/17 10:42:59;;;;;;;4.23;3.80;;;7.90;99.90;;;;;;5057164;28;20203;-44
2021/12/17 10:45:28;;;;;;;11.30;4.33;;;8.00;99.90;;;;;;5075896;28;20215;-47
2021/12/17 10:48:22;;;;;;;7.80;4.40;;;8.00;99.90;;;;;;5055875;28;20227;-47
2021/12/17 10:50:50;;;;;;;6.90;4.07;;;8.00;99.90;;;;;;5058420;28;20196;-47
2021/12/17 10:53:17;;;;;;;9.47;4.37;;;8.10;99.90;;;;;;5059051;28;21066;-47
2021/12/17 10:55:48;;;;;;;11.10;4.27;;;8.10;99.90;;;;;;5080072;28;20261;-47
2021/12/17 10:58:15;;;;;;;7.57;4.33;;;8.10;99.90;;;;;;5055319;28;20200;-47
2021/12/17 11:00:58;;;;;;;7.67;4.30;;;8.20;99.90;;;;;;5081817;28;20204;-48
2021/12/17 11:03:26;;;;;;;6.87;5.00;;;8.20;99.90;;;;;;5063642;28;20474;-49
2021/12/17 11:05:57;;;;;;;6.97;4.00;;;8.20;99.90;;;;;;5069096;28;20597;-48
2021/12/17 11:08:30;;;;;;;5.43;4.27;;;8.20;99.90;;;;;;5058882;28;21154;-44
2021/12/17 11:11:08;;;;;;;10.77;4.27;;;8.30;99.90;;;;;;5078471;27;20211;-45
2021/12/17 11:13:35;;;;;;;7.03;4.07;;;8.30;99.90;;;;;;5072711;28;20217;-44
2021/12/17 11:16:04;;;;;;;5.43;3.47;;;8.30;99.90;;;;;;5081858;27;20204;-44
2021/12/17 11:18:31;;;;;;;5.07;3.47;;;8.30;99.90;;;;;;5080187;28;20319;-44
2021/12/17 11:20:57;;;;;;;7.40;3.70;;;8.30;99.90;;;;;;5069023;28;20207;-44
2021/12/17 11:23:27;;;;;;;6.47;4.03;;;8.30;99.90;;;;;;5066614;28;20555;-44
2021/12/17 11:25:54;;;;;;;7.67;4.23;;;8.40;99.90;;;;;;5080010;27;20232;-44
2021/12/17 11:28:23;;;;;;;5.13;3.60;;;8.40;99.90;;;;;;5061736;28;20705;-47
2021/12/17 11:30:51;;;;;;;8.97;4.20;;;8.40;99.90;;;;;;5082156;28;20207;-47
2021/12/17 11:33:19;;;;;;;6.47;4.37;;;8.40;99.90;;;;;;5086392;28;20674;-46
2021/12/17 11:35:47;;;;;;;4.43;3.87;;;8.40;99.90;;;;;;5072245;28;20202;-47
2021/12/17 11:38:18;;;;;;;6.87;4.13;;;8.40;99.90;;;;;;5072811;28;20777;-46
2021/12/17 11:40:48;;;;;;;6.87;4.27;;;8.40;99.90;;;;;;5063485;28;20227;-47
2021/12/17 11:43:52;;;;;;;6.60;4.83;;;8.40;99.90;;;;;;5070371;28;20689;-46
2021/12/17 11:46:24;;;;;;;7.23;4.30;;;8.40;99.90;;;;;;5079736;28;20200;-46
2021/12/17 11:48:54;;;;;;;7.33;3.73;;;8.50;99.90;;;;;;5083717;28;20212;-46
2021/12/17 11:51:25;;;;;;;5.73;3.57;;;8.50;99.90;;;;;;5067962;28;20662;-46
2021/12/17 11:54:06;;;;;;;5.07;4.10;;;8.50;99.90;;;;;;5091967;28;20224;-46
2021/12/17 11:56:49;;;;;;;8.37;3.80;;;8.50;99.90;;;;;;5087973;28;20843;-47
2021/12/17 11:59:40;;;;;;;6.83;3.87;;;8.40;99.90;;;;;;5067056;27;20250;-47
2021/12/17 12:02:15;;;;;;;6.17;3.13;;;8.50;99.90;;;;;;5053300;28;20799;-47
2021/12/17 12:04:46;;;;;;;6.47;3.27;;;8.50;99.90;;;;;;5073683;28;20211;-46
2021/12/17 12:07:15;;;;;;;11.70;3.30;;;8.50;99.90;;;;;;5059001;28;20203;-48
2021/12/17 12:09:57;;;;;;;5.73;3.53;;;8.60;99.90;;;;;;5080771;28;20685;-47
2021/12/17 12:12:41;;;;;;;3.70;3.30;;;8.50;99.90;;;;;;5078474;28;20230;-48
2021/12/17 12:15:38;;;;;;;3.77;3.40;;;8.50;99.90;;;;;;5047274;28;20228;-48
2021/12/17 12:18:15;;;;;;;7.43;3.50;;;8.50;99.90;;;;;;5077055;27;20230;-47
2021/12/17 12:20:58;;;;;;;5.80;3.67;;;8.50;99.90;;;;;;5082609;28;20206;-47
2021/12/17 12:23:41;;;;;;;5.57;3.20;;;8.60;99.90;;;;;;5070238;27;20554;-47
2021/12/17 12:26:23;;;;;;;7.23;3.80;;;8.60;99.90;;;;;;5078247;28;20210;-46
2021/12/17 12:29:23;;;;;;;6.70;3.60;;;8.60;99.90;;;;;;5083776;28;20687;-46
2021/12/17 12:32:11;;;;;;;6.70;3.30;;;8.60;99.90;;;;;;5053965;28;20613;-47
2021/12/17 12:34:40;;;;;;;6.30;3.67;;;8.60;99.90;;;;;;5081375;28;20227;-46
2021/12/17 12:37:27;;;;;;;7.43;4.03;;;8.60;99.90;;;;;;5079687;28;20586;-50
2021/12/17 12:40:15;;;;;;;8.00;4.20;;;8.70;99.90;;;;;;5067089;28;20951;-46
2021/12/17 12:42:55;;;;;;;8.93;4.67;;;8.70;99.90;;;;;;5077715;28;20200;-46
2021/12/17 12:45:23;;;;;;;11.73;4.50;;;8.70;99.90;;;;;;5081912;28;20212;-47
2021/12/17 12:47:58;;;;;;;6.53;4.50;;;8.70;99.90;;;;;;5059459;28;20204;-46
2021/12/17 12:50:28;;;;;;;8.67;4.93;;;8.70;99.90;;;;;;5073339;28;20223;-44
2021/12/17 12:52:57;;;;;;;7.27;4.63;;;8.70;99.90;;;;;;5053367;28;20211;-44
2021/12/17 12:55:28;;;;;;;6.63;3.93;;;8.70;99.90;;;;;;5085972;28;20274;-44
2021/12/17 12:58:03;;;;;;;9.30;4.57;;;8.70;99.90;;;;;;5068745;27;20212;-47
2021/12/17 13:00:32;;;;;;;6.63;4.47;;;8.70;99.90;;;;;;5060296;28;20637;-47
2021/12/17 13:03:02;;;;;;;8.10;4.50;;;8.70;99.90;;;;;;5033682;28;22063;-47
2021/12/17 13:05:30;;;;;;;6.17;4.27;;;8.70;99.90;;;;;;5065639;28;20600;-47
2021/12/17 13:07:59;;;;;;;5.67;4.57;;;8.70;99.90;;;;;;5058455;28;20272;-47
2021/12/17 13:10:28;;;;;;;8.13;4.80;;;8.70;99.90;;;;;;5061064;27;20312;-47
2021/12/17 13:13:00;;;;;;;8.53;4.90;;;8.70;99.90;;;;;;5064822;28;20210;-47
2021/12/17 13:21:19;;;;;;;6.93;4.57;;;8.70;99.90;;;;;;5066639;27;20210;-44
2021/12/17 13:23:52;;;;;;;7.53;4.43;;;8.70;99.90;;;;;;5062321;28;20792;-44
2021/12/17 13:26:21;;;;;;;12.37;4.53;;;8.70;99.90;;;;;;5083609;28;20591;-44
2021/12/17 13:28:55;;;;;;;6.33;4.33;;;8.70;99.90;;;;;;5067056;28;20228;-44
2021/12/17 13:31:43;;;;;;;7.63;4.53;;;8.70;99.90;;;;;;5086841;28;20194;-48
2021/12/17 13:34:17;;;;;;;6.97;4.57;;;8.60;99.90;;;;;;5050004;28;20235;-48
2021/12/17 13:37:06;;;;;;;6.03;4.53;;;8.70;99.90;;;;;;5038974;28;20196;-48
2021/12/17 13:39:36;;;;;;;8.83;4.60;;;8.70;99.90;;;;;;5043017;27;20204;-42
2021/12/17 13:42:04;;;;;;;6.97;4.87;;;8.70;99.90;;;;;;5048686;28;20819;-42
2021/12/17 13:44:37;;;;;;;5.90;4.13;;;8.70;99.90;;;;;;5053444;27;20734;-42
2021/12/17 13:47:20;;;;;;;6.53;4.10;;;8.60;99.90;;;;;;5054399;28;20211;-42
2021/12/17 13:49:50;;;;;;;7.23;4.47;;;8.60;99.90;;;;;;5067529;28;20247;-42
2021/12/17 13:52:21;;;;;;;7.07;4.57;;;8.60;99.90;;;;;;5047587;28;20216;-42
2021/12/17 13:54:49;;;;;;;6.10;4.30;;;8.60;99.90;;;;;;5044091;28;20415;-42
2021/12/17 13:57:18;;;;;;;5.93;4.67;;;8.60;99.90;;;;;;5063872;28;20208;-42
2021/12/17 13:59:46;;;;;;;7.37;4.70;;;8.60;99.90;;;;;;5052466;28;20780;-42
2021/12/17 14:02:15;;;;;;;6.67;4.50;;;8.60;99.90;;;;;;5050438;27;20926;-42
2021/12/17 14:04:43;;;;;;;9.43;4.03;;;8.60;99.90;;;;;;5067157;28;20702;-43
2021/12/17 14:07:12;;;;;;;7.17;4.27;;;8.60;99.90;;;;;;5044144;28;20593;-43
2021/12/17 14:09:39;;;;;;;8.20;4.63;;;8.60;99.90;;;;;;5054592;28;20940;-43
2021/12/17 14:12:12;;;;;;;8.27;4.30;;;8.60;99.90;;;;;;5040265;28;20264;-43
2021/12/17 14:14:39;;;;;;;5.90;4.50;;;8.60;99.90;;;;;;5073382;28;20271;-43
2021/12/17 14:17:08;;;;;;;7.90;4.33;;;8.60;99.90;;;;;;5063396;28;20215;-43
2021/12/17 14:19:37;;;;;;;7.23;4.60;;;8.60;99.90;;;;;;5067116;28;20740;-43
2021/12/17 14:22:35;;;;;;;8.57;4.47;;;8.60;99.90;;;;;;5054007;28;20550;-43
2021/12/17 14:25:44;;;;;;;5.67;4.07;;;8.60;99.90;;;;;;5071284;28;20224;-43
2021/12/17 14:28:16;;;;;;;4.50;3.60;;;8.60;99.90;;;;;;5039843;28;20207;-43
2021/12/17 14:30:48;;;;;;;7.60;4.17;;;8.60;99.90;;;;;;5072176;28;20223;-43
2021/12/17 14:33:17;;;;;;;5.90;4.07;;;8.60;99.90;;;;;;5063544;28;20238;-43
2021/12/17 14:35:51;;;;;;;10.17;4.13;;;8.60;99.90;;;;;;5069430;28;20567;-44
2021/12/17 14:38:21;;;;;;;6.40;3.83;;;8.50;99.90;;;;;;5035477;28;20211;-44
2021/12/17 14:40:59;;;;;;;5.67;3.57;;;8.50;99.90;;;;;;5058403;28;20207;-44
2021/12/17 14:43:31;;;;;;;4.80;3.60;;;8.50;99.90;;;;;;5049496;28;20337;-47
2021/12/17 14:46:10;;;;;;;5.70;3.40;;;8.60;99.90;;;;;;5068278;28;20199;-49
2021/12/17 14:48:46;;;;;;;4.57;2.93;;;8.50;99.90;;;;;;5071400;28;21029;-43
2021/12/17 15:05:17;;;;;;;3.03;2.40;;;8.50;99.90;;;;;;5057568;28;20259;-43
2021/12/17 15:07:45;;;;;;;4.47;2.30;;;8.50;99.90;;;;;;5047134;28;20208;-43
2021/12/17 15:10:15;;;;;;;2.70;2.30;;;8.50;99.90;;;;;;5057527;28;20358;-43
2021/12/17 15:12:43;;;;;;;2.87;2.20;;;8.50;99.90;;;;;;5049664;28;20216;-43
2021/12/17 15:15:15;;;;;;;2.53;2.10;;;8.50;99.90;;;;;;5063978;28;20220;-42
2021/12/17 15:17:43;;;;;;;5.77;2.30;;;8.50;99.90;;;;;;5069214;28;20287;-43
2021/12/17 15:20:11;;;;;;;5.70;2.50;;;8.50;99.90;;;;;;5066036;28;20206;-43
2021/12/17 15:22:39;;;;;;;3.33;2.40;;;8.50;99.90;;;;;;5064406;28;20215;-43
2021/12/17 15:25:09;;;;;;;8.00;2.80;;;8.50;99.90;;;;;;5050016;28;20281;-43
2021/12/17 15:27:37;;;;;;;3.20;2.50;;;8.50;99.90;;;;;;5055966;28;20219;-43
2021/12/17 15:30:07;;;;;;;4.83;2.63;;;8.50;99.90;;;;;;5058205;28;20223;-43
2021/12/17 15:32:34;;;;;;;3.07;2.50;;;8.40;99.90;;;;;;5073415;28;20320;-43
2021/12/17 15:35:01;;;;;;;5.50;2.47;;;8.40;99.90;;;;;;5075266;28;20306;-43
2021/12/17 15:37:27;;;;;;;3.80;2.47;;;8.40;99.90;;;;;;5073739;28;20205;-43
2021/12/17 15:39:54;;;;;;;3.50;2.70;;;8.40;99.90;;;;;;5039691;28;22076;-43
2021/12/17 15:42:22;;;;;;;4.23;2.83;;;8.40;99.90;;;;;;5068095;28;20208;-43
2021/12/17 15:44:50;;;;;;;6.23;3.50;;;8.50;99.90;;;;;;5047740;28;20215;-48
2021/12/17 15:47:17;;;;;;;5.50;2.80;;;8.40;99.90;;;;;;5077276;28;20315;-47
2021/12/17 15:49:46;;;;;;;4.80;3.77;;;8.50;99.90;;;;;;5047365;28;20219;-43